sensor_id;sensor_type;location;lat;lon;timestamp;pressure;altitude;pressure_sealevel;temperature;humidity
41503;BME280;27237;42.554;22.966;2022-07-23T00:02:19;93546.91;;;24.81;36.76
41503;BME280;27237;42.554;22.966;2022-07-23T00:04:45;93541.19;;;24.74;36.83
41503;BME280;27237;42.554;22.966;2022-07-23T00:07:10;93548.34;;;24.78;36.89
41503;BME280;27237;42.554;22.966;2022-07-23T00:09:36;93551.88;;;24.79;37.34
41503;BME280;27237;42.554;22.966;2022-07-23T00:12:01;93539.31;;;24.74;37.78
41503;BME280;27237;42.554;22.966;2022-07-23T00:14:27;93550.16;;;24.74;37.88
41503;BME280;27237;42.554;22.966;2022-07-23T00:16:52;93560.06;;;24.70;37.73
41503;BME280;27237;42.554;22.966;2022-07-23T00:19:18;93556.44;;;24.66;38.09
41503;BME280;27237;42.554;22.966;2022-07-23T00:21:43;93560.91;;;24.62;37.90
41503;BME280;27237;42.554;22.966;2022-07-23T00:24:09;93558.06;;;24.58;37.96
41503;BME280;27237;42.554;22.966;2022-07-23T00:26:34;93549.00;;;24.54;38.32
41503;BME280;27237;42.554;22.966;2022-07-23T00:28:59;93559.84;;;24.54;38.12
41503;BME280;27237;42.554;22.966;2022-07-23T00:31:25;93553.97;;;24.52;38.19
41503;BME280;27237;42.554;22.966;2022-07-23T00:33:50;93558.59;;;24.52;38.32
41503;BME280;27237;42.554;22.966;2022-07-23T00:36:16;93561.63;;;24.50;38.14
41503;BME280;27237;42.554;22.966;2022-07-23T00:38:41;93533.78;;;24.32;37.92
41503;BME280;27237;42.554;22.966;2022-07-23T00:41:07;93550.28;;;24.48;38.14
41503;BME280;27237;42.554;22.966;2022-07-23T00:43:32;93553.81;;;24.49;38.00
41503;BME280;27237;42.554;22.966;2022-07-23T00:45:58;93549.50;;;24.48;38.52
41503;BME280;27237;42.554;22.966;2022-07-23T00:48:23;93543.59;;;24.46;38.38
41503;BME280;27237;42.554;22.966;2022-07-23T00:50:48;93549.03;;;24.46;38.31
41503;BME280;27237;42.554;22.966;2022-07-23T00:53:15;93544.75;;;24.45;38.73
41503;BME280;27237;42.554;22.966;2022-07-23T00:55:40;93559.88;;;24.46;38.49
41503;BME280;27237;42.554;22.966;2022-07-23T00:58:06;93551.56;;;24.42;38.87
41503;BME280;27237;42.554;22.966;2022-07-23T01:00:32;93541.44;;;24.30;38.68
41503;BME280;27237;42.554;22.966;2022-07-23T01:02:57;93548.13;;;24.33;38.96
41503;BME280;27237;42.554;22.966;2022-07-23T01:05:23;93554.22;;;24.30;39.17
41503;BME280;27237;42.554;22.966;2022-07-23T01:07:50;93497.94;;;23.88;39.28
41503;BME280;27237;42.554;22.966;2022-07-23T01:10:16;93555.19;;;24.25;39.78
41503;BME280;27237;42.554;22.966;2022-07-23T01:13:04;93548.34;;;24.19;40.12
41503;BME280;27237;42.554;22.966;2022-07-23T01:15:31;93552.84;;;24.15;40.13
41503;BME280;27237;42.554;22.966;2022-07-23T01:17:57;93557.78;;;24.13;39.97
41503;BME280;27237;42.554;22.966;2022-07-23T01:20:23;93552.69;;;24.11;40.13
41503;BME280;27237;42.554;22.966;2022-07-23T01:22:48;93543.75;;;24.11;40.12
41503;BME280;27237;42.554;22.966;2022-07-23T01:25:14;93543.50;;;24.04;39.87
41503;BME280;27237;42.554;22.966;2022-07-23T01:27:40;93538.72;;;24.01;39.89
41503;BME280;27237;42.554;22.966;2022-07-23T01:30:06;93543.00;;;24.02;39.72
41503;BME280;27237;42.554;22.966;2022-07-23T01:32:32;93540.59;;;24.00;39.35
41503;BME280;27237;42.554;22.966;2022-07-23T01:34:57;93540.94;;;23.98;39.65
41503;BME280;27237;42.554;22.966;2022-07-23T01:37:22;93534.25;;;23.96;39.72
41503;BME280;27237;42.554;22.966;2022-07-23T01:39:48;93540.81;;;23.95;39.65
41503;BME280;27237;42.554;22.966;2022-07-23T01:42:13;93543.84;;;23.93;39.88
41503;BME280;27237;42.554;22.966;2022-07-23T01:44:39;93517.13;;;23.74;39.94
41503;BME280;27237;42.554;22.966;2022-07-23T01:47:04;93535.09;;;23.88;39.82
41503;BME280;27237;42.554;22.966;2022-07-23T01:49:30;93533.16;;;23.88;39.75
41503;BME280;27237;42.554;22.966;2022-07-23T01:51:55;93537.31;;;23.86;39.69
41503;BME280;27237;42.554;22.966;2022-07-23T01:54:28;93540.81;;;23.86;39.87
41503;BME280;27237;42.554;22.966;2022-07-23T01:56:55;93536.53;;;23.85;39.43
41503;BME280;27237;42.554;22.966;2022-07-23T01:59:21;93546.09;;;23.83;39.98
41503;BME280;27237;42.554;22.966;2022-07-23T02:01:47;93539.41;;;23.80;39.96
41503;BME280;27237;42.554;22.966;2022-07-23T02:04:18;93546.25;;;23.78;40.28
41503;BME280;27237;42.554;22.966;2022-07-23T02:06:45;93548.34;;;23.72;40.06
41503;BME280;27237;42.554;22.966;2022-07-23T02:09:10;93553.59;;;23.68;39.91
41503;BME280;27237;42.554;22.966;2022-07-23T02:11:36;93547.25;;;23.64;40.33
41503;BME280;27237;42.554;22.966;2022-07-23T02:14:02;93539.78;;;23.52;40.07
41503;BME280;27237;42.554;22.966;2022-07-23T02:16:27;93548.22;;;23.60;39.95
41503;BME280;27237;42.554;22.966;2022-07-23T02:18:52;93551.56;;;23.57;40.06
41503;BME280;27237;42.554;22.966;2022-07-23T02:21:18;93526.09;;;23.40;39.30
41503;BME280;27237;42.554;22.966;2022-07-23T02:23:43;93521.97;;;23.34;39.96
41503;BME280;27237;42.554;22.966;2022-07-23T02:26:09;93554.94;;;23.45;40.01
41503;BME280;27237;42.554;22.966;2022-07-23T02:28:34;93551.59;;;23.39;39.88
41503;BME280;27237;42.554;22.966;2022-07-23T02:30:59;93524.88;;;23.12;40.41
41503;BME280;27237;42.554;22.966;2022-07-23T02:33:25;93549.53;;;23.27;40.95
41503;BME280;27237;42.554;22.966;2022-07-23T02:35:50;93547.00;;;23.22;40.81
41503;BME280;27237;42.554;22.966;2022-07-23T02:38:16;93557.34;;;23.20;41.01
41503;BME280;27237;42.554;22.966;2022-07-23T02:40:41;93564.53;;;23.16;41.01
41503;BME280;27237;42.554;22.966;2022-07-23T02:43:07;93541.41;;;23.01;40.90
41503;BME280;27237;42.554;22.966;2022-07-23T02:45:32;93551.00;;;23.07;41.17
41503;BME280;27237;42.554;22.966;2022-07-23T02:47:58;93565.81;;;23.10;41.64
41503;BME280;27237;42.554;22.966;2022-07-23T02:50:23;93571.03;;;23.06;41.62
41503;BME280;27237;42.554;22.966;2022-07-23T02:55:14;93565.31;;;22.99;41.65
41503;BME280;27237;42.554;22.966;2022-07-23T02:57:39;93579.50;;;22.96;41.97
41503;BME280;27237;42.554;22.966;2022-07-23T03:00:06;93574.34;;;22.86;41.80
41503;BME280;27237;42.554;22.966;2022-07-23T03:02:32;93585.31;;;22.90;41.55
41503;BME280;27237;42.554;22.966;2022-07-23T03:04:57;93580.25;;;22.88;42.17
41503;BME280;27237;42.554;22.966;2022-07-23T03:07:23;93580.25;;;22.88;42.11
41503;BME280;27237;42.554;22.966;2022-07-23T03:09:48;93570.06;;;22.76;41.87
41503;BME280;27237;42.554;22.966;2022-07-23T03:12:14;93581.03;;;22.80;42.50
41503;BME280;27237;42.554;22.966;2022-07-23T03:14:40;93588.03;;;22.81;42.65
41503;BME280;27237;42.554;22.966;2022-07-23T03:17:06;93591.19;;;22.74;42.98
41503;BME280;27237;42.554;22.966;2022-07-23T03:19:31;93589.44;;;22.70;42.90
41503;BME280;27237;42.554;22.966;2022-07-23T03:21:57;93593.91;;;22.66;42.76
41503;BME280;27237;42.554;22.966;2022-07-23T03:24:22;93590.69;;;22.63;42.79
41503;BME280;27237;42.554;22.966;2022-07-23T03:27:08;93598.31;;;22.61;42.84
41503;BME280;27237;42.554;22.966;2022-07-23T03:29:33;93599.16;;;22.62;42.85
41503;BME280;27237;42.554;22.966;2022-07-23T03:31:58;93598.81;;;22.63;43.19
41503;BME280;27237;42.554;22.966;2022-07-23T03:34:24;93605.81;;;22.64;43.01
41503;BME280;27237;42.554;22.966;2022-07-23T03:36:49;93597.69;;;22.64;43.07
41503;BME280;27237;42.554;22.966;2022-07-23T03:39:15;93601.22;;;22.65;42.96
41503;BME280;27237;42.554;22.966;2022-07-23T03:41:40;93602.50;;;22.68;42.54
41503;BME280;27237;42.554;22.966;2022-07-23T03:44:06;93604.38;;;22.67;42.76
41503;BME280;27237;42.554;22.966;2022-07-23T03:46:31;93596.59;;;22.66;42.97
41503;BME280;27237;42.554;22.966;2022-07-23T03:48:56;93591.50;;;22.64;43.08
41503;BME280;27237;42.554;22.966;2022-07-23T03:51:22;93597.09;;;22.68;42.60
41503;BME280;27237;42.554;22.966;2022-07-23T03:53:47;93602.50;;;22.68;42.88
41503;BME280;27237;42.554;22.966;2022-07-23T03:56:14;93598.19;;;22.67;42.67
41503;BME280;27237;42.554;22.966;2022-07-23T03:58:39;93603.09;;;22.64;43.18
41503;BME280;27237;42.554;22.966;2022-07-23T04:01:05;93599.94;;;22.62;43.18
41503;BME280;27237;42.554;22.966;2022-07-23T04:03:30;93605.66;;;22.61;43.04
41503;BME280;27237;42.554;22.966;2022-07-23T04:05:56;93602.16;;;22.60;42.41
41503;BME280;27237;42.554;22.966;2022-07-23T04:08:21;93608.69;;;22.59;43.03
41503;BME280;27237;42.554;22.966;2022-07-23T04:10:47;93608.69;;;22.59;43.39
41503;BME280;27237;42.554;22.966;2022-07-23T04:13:12;93614.38;;;22.58;43.71
41503;BME280;27237;42.554;22.966;2022-07-23T04:15:38;93607.69;;;22.55;44.24
41503;BME280;27237;42.554;22.966;2022-07-23T04:18:04;93616.44;;;22.52;44.27
41503;BME280;27237;42.554;22.966;2022-07-23T04:20:29;93600.34;;;22.38;43.54
41503;BME280;27237;42.554;22.966;2022-07-23T04:22:55;93614.03;;;22.42;43.69
41503;BME280;27237;42.554;22.966;2022-07-23T04:25:20;93618.97;;;22.40;43.95
41503;BME280;27237;42.554;22.966;2022-07-23T04:27:45;93620.69;;;22.36;43.48
41503;BME280;27237;42.554;22.966;2022-07-23T04:30:11;93599.16;;;22.22;44.09
41503;BME280;27237;42.554;22.966;2022-07-23T04:32:36;93614.97;;;22.37;43.90
41503;BME280;27237;42.554;22.966;2022-07-23T04:35:02;93588.47;;;22.17;44.28
41503;BME280;27237;42.554;22.966;2022-07-23T04:37:28;93615.13;;;22.41;43.93
41503;BME280;27237;42.554;22.966;2022-07-23T04:39:53;93613.72;;;22.44;43.63
41503;BME280;27237;42.554;22.966;2022-07-23T04:42:18;93617.69;;;22.46;43.49
41503;BME280;27237;42.554;22.966;2022-07-23T04:44:44;93628.06;;;22.53;43.52
41503;BME280;27237;42.554;22.966;2022-07-23T04:47:09;93624.41;;;22.57;43.75
41503;BME280;27237;42.554;22.966;2022-07-23T04:49:36;93625.84;;;22.63;43.68
41503;BME280;27237;42.554;22.966;2022-07-23T04:52:01;93631.63;;;22.71;43.67
41503;BME280;27237;42.554;22.966;2022-07-23T04:54:26;93626.03;;;22.76;43.29
41503;BME280;27237;42.554;22.966;2022-07-23T04:56:52;93624.59;;;22.78;43.13
41503;BME280;27237;42.554;22.966;2022-07-23T04:59:18;93601.22;;;22.65;42.95
41503;BME280;27237;42.554;22.966;2022-07-23T05:01:43;93624.47;;;22.83;43.27
41503;BME280;27237;42.554;22.966;2022-07-23T05:04:09;93627.81;;;22.89;43.64
41503;BME280;27237;42.554;22.966;2022-07-23T05:06:34;93633.09;;;22.94;43.57
41503;BME280;27237;42.554;22.966;2022-07-23T05:09:00;93626.75;;;22.99;43.65
41503;BME280;27237;42.554;22.966;2022-07-23T05:13:50;93634.88;;;23.07;43.47
41503;BME280;27237;42.554;22.966;2022-07-23T05:16:16;93639.81;;;23.14;43.64
41503;BME280;27237;42.554;22.966;2022-07-23T05:18:42;93639.53;;;23.16;43.19
41503;BME280;27237;42.554;22.966;2022-07-23T05:21:07;93615.75;;;23.04;43.55
41503;BME280;27237;42.554;22.966;2022-07-23T05:23:33;93653.69;;;23.21;43.64
41503;BME280;27237;42.554;22.966;2022-07-23T05:25:58;93642.53;;;23.31;43.40
41503;BME280;27237;42.554;22.966;2022-07-23T05:28:23;93642.38;;;23.37;43.57
41503;BME280;27237;42.554;22.966;2022-07-23T05:30:49;93633.31;;;23.41;43.44
41503;BME280;27237;42.554;22.966;2022-07-23T05:33:14;93644.59;;;23.52;43.14
41503;BME280;27237;42.554;22.966;2022-07-23T05:35:40;93641.88;;;23.61;43.10
41503;BME280;27237;42.554;22.966;2022-07-23T05:38:05;93637.56;;;23.68;43.22
41503;BME280;27237;42.554;22.966;2022-07-23T05:40:31;93640.63;;;23.75;43.48
41503;BME280;27237;42.554;22.966;2022-07-23T05:42:58;93641.06;;;23.86;42.77
41503;BME280;27237;42.554;22.966;2022-07-23T05:45:23;93637.09;;;23.92;42.78
41503;BME280;27237;42.554;22.966;2022-07-23T05:47:49;93646.47;;;24.04;42.84
41503;BME280;27237;42.554;22.966;2022-07-23T05:50:15;93640.06;;;24.08;42.46
41503;BME280;27237;42.554;22.966;2022-07-23T05:52:42;93621.59;;;24.02;42.57
41503;BME280;27237;42.554;22.966;2022-07-23T05:55:09;93627.28;;;24.17;41.76
41503;BME280;27237;42.554;22.966;2022-07-23T05:57:35;93644.63;;;24.34;42.46
41503;BME280;27237;42.554;22.966;2022-07-23T06:00:02;93634.06;;;24.50;41.77
41503;BME280;27237;42.554;22.966;2022-07-23T06:02:28;93636.22;;;24.65;42.14
41503;BME280;27237;42.554;22.966;2022-07-23T06:04:54;93631.34;;;24.79;41.86
41503;BME280;27237;42.554;22.966;2022-07-23T06:07:19;93642.63;;;24.90;42.38
41503;BME280;27237;42.554;22.966;2022-07-23T06:09:44;93630.69;;;24.82;41.63
41503;BME280;27237;42.554;22.966;2022-07-23T06:12:12;93636.34;;;24.98;41.22
41503;BME280;27237;42.554;22.966;2022-07-23T06:14:37;93643.47;;;25.12;42.09
41503;BME280;27237;42.554;22.966;2022-07-23T06:17:03;93638.47;;;25.22;41.81
41503;BME280;27237;42.554;22.966;2022-07-23T06:19:28;93629.00;;;25.28;41.50
41503;BME280;27237;42.554;22.966;2022-07-23T06:21:54;93639.97;;;25.53;39.53
41503;BME280;27237;42.554;22.966;2022-07-23T06:24:19;93634.88;;;25.51;40.90
41503;BME280;27237;42.554;22.966;2022-07-23T06:26:44;93643.19;;;25.67;40.13
41503;BME280;27237;42.554;22.966;2022-07-23T06:29:10;93641.34;;;25.80;40.50
41503;BME280;27237;42.554;22.966;2022-07-23T06:31:35;93637.69;;;25.97;41.00
41503;BME280;27237;42.554;22.966;2022-07-23T06:34:01;93607.41;;;25.98;41.04
41503;BME280;27237;42.554;22.966;2022-07-23T06:36:27;93635.94;;;26.26;41.41
41503;BME280;27237;42.554;22.966;2022-07-23T06:38:52;93630.50;;;26.38;40.28
41503;BME280;27237;42.554;22.966;2022-07-23T06:41:18;93628.94;;;26.49;40.18
41503;BME280;27237;42.554;22.966;2022-07-23T06:43:43;93634.44;;;26.61;40.55
41503;BME280;27237;42.554;22.966;2022-07-23T06:46:09;93637.72;;;26.67;40.43
41503;BME280;27237;42.554;22.966;2022-07-23T06:48:34;93633.41;;;26.78;39.42
41503;BME280;27237;42.554;22.966;2022-07-23T06:51:02;93588.16;;;26.74;38.32
41503;BME280;27237;42.554;22.966;2022-07-23T06:53:27;93628.38;;;27.05;38.83
41503;BME280;27237;42.554;22.966;2022-07-23T06:55:53;93608.06;;;27.02;38.64
41503;BME280;27237;42.554;22.966;2022-07-23T06:58:19;93621.91;;;27.22;38.62
41503;BME280;27237;42.554;22.966;2022-07-23T07:00:45;93627.09;;;27.39;38.79
41503;BME280;27237;42.554;22.966;2022-07-23T07:03:11;93628.66;;;27.52;37.96
41503;BME280;27237;42.554;22.966;2022-07-23T07:05:36;93630.53;;;27.64;38.33
41503;BME280;27237;42.554;22.966;2022-07-23T07:08:02;93625.38;;;27.75;38.90
41503;BME280;27237;42.554;22.966;2022-07-23T07:10:27;93630.09;;;27.90;38.15
41503;BME280;27237;42.554;22.966;2022-07-23T07:12:53;93614.81;;;28.02;37.68
41503;BME280;27237;42.554;22.966;2022-07-23T07:15:18;93593.53;;;28.07;36.50
41503;BME280;27237;42.554;22.966;2022-07-23T07:17:43;93623.03;;;28.33;36.41
41503;BME280;27237;42.554;22.966;2022-07-23T07:20:10;93611.53;;;28.40;35.66
41503;BME280;27237;42.554;22.966;2022-07-23T07:22:35;93605.94;;;28.49;35.21
41503;BME280;27237;42.554;22.966;2022-07-23T07:25:01;93608.94;;;28.59;36.09
41503;BME280;27237;42.554;22.966;2022-07-23T07:27:26;93604.50;;;28.71;35.13
41503;BME280;27237;42.554;22.966;2022-07-23T07:29:52;93607.91;;;28.83;36.00
41503;BME280;27237;42.554;22.966;2022-07-23T07:32:17;93609.41;;;28.97;35.34
41503;BME280;27237;42.554;22.966;2022-07-23T07:34:43;93607.75;;;29.08;34.86
41503;BME280;27237;42.554;22.966;2022-07-23T07:37:08;93595.50;;;29.21;34.96
41503;BME280;27237;42.554;22.966;2022-07-23T07:39:34;93603.75;;;29.41;34.82
41503;BME280;27237;42.554;22.966;2022-07-23T07:41:59;93597.00;;;29.54;34.70
41503;BME280;27237;42.554;22.966;2022-07-23T07:44:24;93579.09;;;29.57;34.80
41503;BME280;27237;42.554;22.966;2022-07-23T07:46:50;93593.91;;;29.75;32.53
41503;BME280;27237;42.554;22.966;2022-07-23T07:49:15;93588.94;;;29.81;33.42
41503;BME280;27237;42.554;22.966;2022-07-23T07:51:44;93593.16;;;29.97;33.00
41503;BME280;27237;42.554;22.966;2022-07-23T07:54:10;93589.34;;;30.02;32.32
41503;BME280;27237;42.554;22.966;2022-07-23T07:56:36;93589.56;;;30.13;32.88
41503;BME280;27237;42.554;22.966;2022-07-23T07:59:01;93587.59;;;30.13;33.54
41503;BME280;27237;42.554;22.966;2022-07-23T08:01:26;93581.19;;;30.25;32.34
41503;BME280;27237;42.554;22.966;2022-07-23T08:03:52;93575.84;;;30.32;33.55
41503;BME280;27237;42.554;22.966;2022-07-23T08:06:17;93565.75;;;30.36;32.38
41503;BME280;27237;42.554;22.966;2022-07-23T08:08:43;93592.03;;;30.41;31.98
41503;BME280;27237;42.554;22.966;2022-07-23T08:11:08;93582.56;;;30.35;32.89
41503;BME280;27237;42.554;22.966;2022-07-23T08:13:34;93580.13;;;30.30;31.76
41503;BME280;27237;42.554;22.966;2022-07-23T08:15:59;93582.47;;;30.31;32.75
41503;BME280;27237;42.554;22.966;2022-07-23T08:18:24;93583.81;;;30.41;32.92
41503;BME280;27237;42.554;22.966;2022-07-23T08:20:50;93576.00;;;30.43;31.84
41503;BME280;27237;42.554;22.966;2022-07-23T08:23:15;93580.84;;;30.50;33.13
41503;BME280;27237;42.554;22.966;2022-07-23T08:25:44;93564.09;;;30.55;33.07
41503;BME280;27237;42.554;22.966;2022-07-23T08:28:11;93570.69;;;30.77;32.08
41503;BME280;27237;42.554;22.966;2022-07-23T08:30:39;93574.03;;;30.90;32.16
41503;BME280;27237;42.554;22.966;2022-07-23T08:33:07;93571.13;;;31.05;32.51
41503;BME280;27237;42.554;22.966;2022-07-23T08:35:36;93566.22;;;31.18;31.35
41503;BME280;27237;42.554;22.966;2022-07-23T08:38:07;93564.00;;;31.27;31.92
41503;BME280;27237;42.554;22.966;2022-07-23T08:40:38;93568.91;;;31.41;30.10
41503;BME280;27237;42.554;22.966;2022-07-23T08:43:24;93565.38;;;31.41;31.19
41503;BME280;27237;42.554;22.966;2022-07-23T08:45:52;93555.56;;;31.40;31.92
41503;BME280;27237;42.554;22.966;2022-07-23T08:48:22;93566.66;;;31.50;31.89
41503;BME280;27237;42.554;22.966;2022-07-23T08:50:52;93557.03;;;31.64;30.99
41503;BME280;27237;42.554;22.966;2022-07-23T08:53:19;93559.81;;;31.67;30.36
41503;BME280;27237;42.554;22.966;2022-07-23T08:55:49;93552.31;;;31.64;30.79
41503;BME280;27237;42.554;22.966;2022-07-23T08:58:15;93556.72;;;31.72;28.68
41503;BME280;27237;42.554;22.966;2022-07-23T09:00:41;93559.97;;;31.82;30.32
41503;BME280;27237;42.554;22.966;2022-07-23T09:03:07;93560.03;;;31.85;28.29
41503;BME280;27237;42.554;22.966;2022-07-23T09:05:39;93562.34;;;31.83;27.13
41503;BME280;27237;42.554;22.966;2022-07-23T09:08:16;93554.41;;;31.74;27.64
41503;BME280;27237;42.554;22.966;2022-07-23T09:10:56;93559.56;;;31.80;26.07
41503;BME280;27237;42.554;22.966;2022-07-23T09:15:55;93561.41;;;31.68;24.36
41503;BME280;27237;42.554;22.966;2022-07-23T09:18:37;93558.19;;;31.63;25.58
41503;BME280;27237;42.554;22.966;2022-07-23T09:23:49;93526.78;;;31.57;27.60
41503;BME280;27237;42.554;22.966;2022-07-23T09:26:29;93559.94;;;31.78;24.71
41503;BME280;27237;42.554;22.966;2022-07-23T09:31:55;93553.31;;;31.79;25.37
41503;BME280;27237;42.554;22.966;2022-07-23T09:34:31;93547.09;;;31.86;25.63
41503;BME280;27237;42.554;22.966;2022-07-23T09:37:19;93544.50;;;31.96;24.49
41503;BME280;27237;42.554;22.966;2022-07-23T09:39:46;93537.72;;;31.90;24.42
41503;BME280;27237;42.554;22.966;2022-07-23T09:44:42;93528.50;;;32.06;21.94
41503;BME280;27237;42.554;22.966;2022-07-23T09:47:08;93534.75;;;32.03;20.92
41503;BME280;27237;42.554;22.966;2022-07-23T09:49:33;93526.50;;;31.99;21.60
41503;BME280;27237;42.554;22.966;2022-07-23T09:52:00;93523.81;;;32.10;20.19
41503;BME280;27237;42.554;22.966;2022-07-23T09:54:38;93530.06;;;32.07;20.57
41503;BME280;27237;42.554;22.966;2022-07-23T09:57:08;93521.53;;;32.15;22.19
41503;BME280;27237;42.554;22.966;2022-07-23T09:59:36;93518.00;;;32.18;21.89
41503;BME280;27237;42.554;22.966;2022-07-23T10:02:04;93513.28;;;32.15;22.69
41503;BME280;27237;42.554;22.966;2022-07-23T10:04:31;93502.34;;;32.19;22.97
41503;BME280;27237;42.554;22.966;2022-07-23T10:07:01;93509.91;;;32.33;23.48
41503;BME280;27237;42.554;22.966;2022-07-23T10:09:29;93486.69;;;32.23;24.53
41503;BME280;27237;42.554;22.966;2022-07-23T10:11:58;93505.69;;;32.42;24.94
41503;BME280;27237;42.554;22.966;2022-07-23T10:14:50;93499.78;;;32.44;22.45
41503;BME280;27237;42.554;22.966;2022-07-23T10:17:17;93503.44;;;32.55;23.12
41503;BME280;27237;42.554;22.966;2022-07-23T10:19:43;93508.56;;;32.60;22.50
41503;BME280;27237;42.554;22.966;2022-07-23T10:22:21;93503.50;;;32.62;22.04
41503;BME280;27237;42.554;22.966;2022-07-23T10:25:27;93502.31;;;32.60;22.50
41503;BME280;27237;42.554;22.966;2022-07-23T10:36:19;93486.25;;;32.69;22.06
41503;BME280;27237;42.554;22.966;2022-07-23T10:41:36;93485.91;;;32.78;21.33
41503;BME280;27237;42.554;22.966;2022-07-23T10:44:10;93474.97;;;32.81;21.65
41503;BME280;27237;42.554;22.966;2022-07-23T10:46:46;93479.69;;;32.84;20.98
41503;BME280;27237;42.554;22.966;2022-07-23T10:49:27;93464.41;;;32.91;20.29
41503;BME280;27237;42.554;22.966;2022-07-23T10:52:20;93467.16;;;32.87;20.73
41503;BME280;27237;42.554;22.966;2022-07-23T10:54:49;93461.22;;;32.81;20.22
41503;BME280;27237;42.554;22.966;2022-07-23T10:57:20;93468.72;;;32.84;20.63
41503;BME280;27237;42.554;22.966;2022-07-23T11:02:31;93455.41;;;32.94;20.22
41503;BME280;27237;42.554;22.966;2022-07-23T11:05:10;93457.00;;;32.98;20.11
41503;BME280;27237;42.554;22.966;2022-07-23T11:13:29;93436.25;;;33.08;19.95
41503;BME280;27237;42.554;22.966;2022-07-23T11:24:00;93435.47;;;33.11;20.43
41503;BME280;27237;42.554;22.966;2022-07-23T11:36:58;93431.97;;;33.18;20.18
41503;BME280;27237;42.554;22.966;2022-07-23T11:39:26;93431.16;;;33.10;20.42
41503;BME280;27237;42.554;22.966;2022-07-23T11:41:52;93418.97;;;33.04;19.44
41503;BME280;27237;42.554;22.966;2022-07-23T11:44:28;93424.84;;;33.06;19.58
41503;BME280;27237;42.554;22.966;2022-07-23T11:47:05;93415.81;;;33.09;18.96
41503;BME280;27237;42.554;22.966;2022-07-23T11:49:32;93414.25;;;33.12;20.60
41503;BME280;27237;42.554;22.966;2022-07-23T11:52:08;93410.31;;;33.09;19.66
41503;BME280;27237;42.554;22.966;2022-07-23T11:54:40;93405.22;;;33.07;18.90
41503;BME280;27237;42.554;22.966;2022-07-23T11:57:11;93410.31;;;33.09;18.81
41503;BME280;27237;42.554;22.966;2022-07-23T11:59:39;93399.31;;;33.02;18.14
41503;BME280;27237;42.554;22.966;2022-07-23T12:02:05;93401.66;;;33.03;19.03
41503;BME280;27237;42.554;22.966;2022-07-23T12:04:44;93410.28;;;32.98;19.10
41503;BME280;27237;42.554;22.966;2022-07-23T12:09:51;93380.72;;;32.77;18.66
41503;BME280;27237;42.554;22.966;2022-07-23T12:12:17;93390.16;;;32.83;18.74
41503;BME280;27237;42.554;22.966;2022-07-23T12:14:57;93397.28;;;32.92;18.05
41503;BME280;27237;42.554;22.966;2022-07-23T12:17:30;93388.66;;;32.97;18.17
41503;BME280;27237;42.554;22.966;2022-07-23T12:19:57;93389.84;;;32.96;18.19
41503;BME280;27237;42.554;22.966;2022-07-23T12:22:24;93382.75;;;32.91;17.45
41503;BME280;27237;42.554;22.966;2022-07-23T12:24:58;93378.41;;;32.86;17.73
41503;BME280;27237;42.554;22.966;2022-07-23T12:27:24;93376.06;;;32.85;18.09
41503;BME280;27237;42.554;22.966;2022-07-23T12:29:50;93370.50;;;32.78;18.02
41503;BME280;27237;42.554;22.966;2022-07-23T12:32:22;93376.81;;;32.78;19.20
41503;BME280;27237;42.554;22.966;2022-07-23T12:34:50;93377.22;;;32.80;18.56
41503;BME280;27237;42.554;22.966;2022-07-23T12:37:37;93350.44;;;32.67;19.12
41503;BME280;27237;42.554;22.966;2022-07-23T12:42:48;93363.88;;;32.82;18.12
41503;BME280;27237;42.554;22.966;2022-07-23T12:45:14;93349.34;;;32.78;18.42
41503;BME280;27237;42.554;22.966;2022-07-23T12:48:01;93356.41;;;32.83;18.78
41503;BME280;27237;42.554;22.966;2022-07-23T12:53:26;93336.75;;;32.74;18.63
41503;BME280;27237;42.554;22.966;2022-07-23T13:06:21;93346.66;;;32.93;17.57
41503;BME280;27237;42.554;22.966;2022-07-23T13:08:46;93355.69;;;32.97;17.07
41503;BME280;27237;42.554;22.966;2022-07-23T13:11:12;93342.31;;;32.92;17.31
41503;BME280;27237;42.554;22.966;2022-07-23T13:13:38;93349.41;;;32.93;17.95
41503;BME280;27237;42.554;22.966;2022-07-23T13:16:03;93317.53;;;32.74;17.82
41503;BME280;27237;42.554;22.966;2022-07-23T13:18:29;93340.34;;;32.92;17.39
41503;BME280;27237;42.554;22.966;2022-07-23T13:20:54;93342.72;;;32.94;17.86
41503;BME280;27237;42.554;22.966;2022-07-23T13:23:21;93319.91;;;32.79;18.18
41503;BME280;27237;42.554;22.966;2022-07-23T13:25:47;93341.94;;;32.97;18.46
41503;BME280;27237;42.554;22.966;2022-07-23T13:28:13;93327.78;;;32.87;18.62
41503;BME280;27237;42.554;22.966;2022-07-23T13:30:40;93334.09;;;32.95;17.76
41503;BME280;27237;42.554;22.966;2022-07-23T13:33:06;93332.50;;;32.98;17.13
41503;BME280;27237;42.554;22.966;2022-07-23T13:35:32;93321.50;;;32.94;17.43
41503;BME280;27237;42.554;22.966;2022-07-23T13:37:58;93327.78;;;32.91;17.23
41503;BME280;27237;42.554;22.966;2022-07-23T13:40:24;93324.22;;;32.83;17.91
41503;BME280;27237;42.554;22.966;2022-07-23T13:42:49;93328.56;;;32.84;17.92
41503;BME280;27237;42.554;22.966;2022-07-23T13:45:14;93322.25;;;32.77;17.49
41503;BME280;27237;42.554;22.966;2022-07-23T13:47:40;93322.25;;;32.77;17.62
41503;BME280;27237;42.554;22.966;2022-07-23T13:50:06;93323.03;;;32.77;17.93
41503;BME280;27237;42.554;22.966;2022-07-23T13:52:32;93326.19;;;32.79;17.63
41503;BME280;27237;42.554;22.966;2022-07-23T13:55:02;93316.75;;;32.73;18.22
41503;BME280;27237;42.554;22.966;2022-07-23T13:57:29;93319.50;;;32.80;18.57
41503;BME280;27237;42.554;22.966;2022-07-23T13:59:55;93297.09;;;32.75;18.13
41503;BME280;27237;42.554;22.966;2022-07-23T14:02:20;93316.75;;;32.80;17.96
41503;BME280;27237;42.554;22.966;2022-07-23T14:04:46;93309.28;;;32.81;18.21